createdAt,value
2017-10-14T00:00:06.053Z,15.90
2017-10-14T00:02:33.076Z,16.00
2017-10-14T00:05:00.119Z,15.90
2017-10-14T00:07:27.914Z,15.70
2017-10-14T00:09:54.981Z,15.70
2017-10-14T00:12:22.012Z,15.70
2017-10-14T00:14:49.057Z,15.70
2017-10-14T00:17:16.098Z,15.50
2017-10-14T00:19:43.142Z,15.50
2017-10-14T00:22:10.173Z,15.60
2017-10-14T00:24:37.976Z,15.70
2017-10-14T00:27:04.999Z,15.70
2017-10-14T00:29:32.037Z,15.60
2017-10-14T00:31:59.828Z,15.70
2017-10-14T00:34:26.867Z,15.70
2017-10-14T00:36:53.892Z,15.60
2017-10-14T00:39:21.703Z,15.70
2017-10-14T00:41:48.738Z,15.70
2017-10-14T00:44:15.769Z,15.70
2017-10-14T00:46:43.574Z,15.80
2017-10-14T00:49:10.609Z,15.80
2017-10-14T00:51:37.639Z,15.80
2017-10-14T00:54:04.673Z,15.80
2017-10-14T00:56:32.470Z,15.80
2017-10-14T00:58:59.510Z,15.70
2017-10-14T01:01:26.550Z,15.80
2017-10-14T01:03:53.581Z,15.70
2017-10-14T01:06:21.374Z,15.70
2017-10-14T01:08:48.420Z,15.70
2017-10-14T01:11:15.444Z,15.70
2017-10-14T01:13:43.236Z,15.80
2017-10-14T01:16:10.286Z,15.70
2017-10-14T01:18:37.321Z,15.70
2017-10-14T01:21:04.362Z,15.70
2017-10-14T01:23:31.393Z,15.70
2017-10-14T01:25:59.195Z,15.80
2017-10-14T01:28:26.234Z,15.70
2017-10-14T01:30:53.265Z,15.80
2017-10-14T01:36:02.882Z,15.70
2017-10-14T01:38:29.931Z,15.80
2017-10-14T01:40:56.964Z,15.70
2017-10-14T01:43:23.997Z,15.70
2017-10-14T01:45:51.028Z,15.80
2017-10-14T01:48:18.842Z,15.80
2017-10-14T01:50:45.876Z,15.70
2017-10-14T01:53:12.907Z,15.80
2017-10-14T01:55:39.941Z,15.80
2017-10-14T01:58:07.744Z,15.70
2017-10-14T02:00:34.777Z,15.70
2017-10-14T02:03:01.809Z,15.80
2017-10-14T02:05:28.841Z,15.70
2017-10-14T02:07:56.647Z,15.60
2017-10-14T02:10:23.679Z,15.60
2017-10-14T02:12:50.704Z,15.70
2017-10-14T02:15:18.497Z,15.70
2017-10-14T02:17:45.534Z,15.60
2017-10-14T02:20:12.570Z,15.70
2017-10-14T02:22:40.388Z,15.60
2017-10-14T02:25:07.432Z,15.60
2017-10-14T02:27:34.477Z,15.60
2017-10-14T02:30:01.518Z,15.50
2017-10-14T02:32:28.550Z,15.50
2017-10-14T02:34:55.578Z,15.40
2017-10-14T02:37:23.378Z,15.40
2017-10-14T02:39:50.423Z,15.40
2017-10-14T02:42:17.461Z,15.40
2017-10-14T02:44:44.488Z,15.30
2017-10-14T02:47:12.311Z,15.20
2017-10-14T02:49:39.350Z,15.20
2017-10-14T02:52:06.380Z,15.30
2017-10-14T02:54:33.405Z,15.20
2017-10-14T02:57:01.195Z,15.00
2017-10-14T02:59:28.244Z,15.00
2017-10-14T03:01:55.270Z,15.00
2017-10-14T03:04:23.072Z,15.10
2017-10-14T03:06:50.111Z,15.00
2017-10-14T03:09:17.255Z,15.00
2017-10-14T03:11:44.285Z,15.00
2017-10-14T03:14:12.077Z,14.90
2017-10-14T03:16:39.118Z,14.80
2017-10-14T03:19:06.151Z,14.90
2017-10-14T03:21:33.185Z,14.90
2017-10-14T03:24:00.991Z,15.00
2017-10-14T03:26:28.020Z,14.90
2017-10-14T03:28:55.049Z,15.00
2017-10-14T03:31:22.858Z,15.10
2017-10-14T03:33:49.972Z,15.00
2017-10-14T03:36:17.773Z,15.00
2017-10-14T03:38:44.806Z,14.90
2017-10-14T03:41:11.835Z,15.00
2017-10-14T03:43:39.638Z,14.90
2017-10-14T03:46:06.673Z,14.90
2017-10-14T03:48:33.696Z,14.90
2017-10-14T03:51:01.502Z,14.80
2017-10-14T03:53:28.541Z,14.70
2017-10-14T03:55:55.573Z,14.80
2017-10-14T03:58:22.613Z,14.70
2017-10-14T04:00:50.413Z,14.60
2017-10-14T04:03:17.474Z,14.50
2017-10-14T04:05:44.500Z,14.50
2017-10-14T04:08:11.529Z,14.70
2017-10-14T04:10:38.555Z,14.50
2017-10-14T04:13:06.362Z,14.30
2017-10-14T04:15:33.399Z,14.30
2017-10-14T04:18:00.438Z,14.40
2017-10-14T04:20:27.474Z,14.40
2017-10-14T04:22:55.278Z,14.30
2017-10-14T04:25:22.316Z,14.20
2017-10-14T04:27:49.354Z,14.30
2017-10-14T04:30:16.390Z,14.30
2017-10-14T04:32:44.180Z,14.50
2017-10-14T04:35:11.204Z,14.50
2017-10-14T04:37:39.009Z,14.60
2017-10-14T04:40:06.053Z,14.50
2017-10-14T04:42:33.093Z,14.50
2017-10-14T04:45:00.127Z,14.40
2017-10-14T04:47:27.171Z,14.30
2017-10-14T04:49:54.204Z,14.30
2017-10-14T04:52:22.017Z,14.40
2017-10-14T04:54:49.053Z,14.30
2017-10-14T04:57:16.082Z,14.40
2017-10-14T04:59:43.132Z,14.20
2017-10-14T05:02:10.165Z,14.20
2017-10-14T05:04:37.972Z,14.30
2017-10-14T05:07:05.007Z,14.20
2017-10-14T05:09:32.049Z,14.40
2017-10-14T05:11:59.094Z,14.40
2017-10-14T05:14:26.130Z,14.30
2017-10-14T05:16:53.938Z,14.30
2017-10-14T05:19:20.977Z,14.30
2017-10-14T05:21:48.014Z,14.40
2017-10-14T05:24:15.040Z,14.50
2017-10-14T05:26:42.840Z,14.40
2017-10-14T05:29:09.868Z,14.40
2017-10-14T05:31:36.909Z,14.40
2017-10-14T05:34:04.709Z,14.40
2017-10-14T05:36:31.740Z,14.30
2017-10-14T05:38:58.771Z,14.30
2017-10-14T05:41:26.568Z,14.30
2017-10-14T05:43:53.602Z,14.30
2017-10-14T05:46:20.642Z,14.30
2017-10-14T05:48:47.700Z,14.30
2017-10-14T05:51:14.736Z,14.50
2017-10-14T05:53:41.759Z,14.50
2017-10-14T05:56:08.788Z,14.40
2017-10-14T05:58:35.825Z,14.50
2017-10-14T06:01:02.864Z,14.40
2017-10-14T06:03:29.890Z,14.40
2017-10-14T06:05:56.920Z,14.40
2017-10-14T06:08:24.731Z,14.40
2017-10-14T06:10:51.778Z,14.40
2017-10-14T06:13:18.809Z,14.50
2017-10-14T06:15:45.851Z,14.50
2017-10-14T06:18:12.883Z,14.40
2017-10-14T06:20:40.694Z,14.40
2017-10-14T06:23:07.744Z,14.40
2017-10-14T06:25:34.768Z,14.80
2017-10-14T06:28:01.805Z,14.90
2017-10-14T06:30:28.831Z,14.70
2017-10-14T06:32:56.750Z,14.60
2017-10-14T06:35:23.785Z,14.50
2017-10-14T06:37:50.819Z,14.50
2017-10-14T06:40:17.862Z,14.60
2017-10-14T06:42:44.894Z,14.70
2017-10-14T06:45:12.693Z,14.50
2017-10-14T06:47:39.729Z,14.50
2017-10-14T06:50:06.766Z,14.60
2017-10-14T06:52:34.576Z,14.70
2017-10-14T06:55:01.609Z,14.60
2017-10-14T06:57:28.638Z,14.60
2017-10-14T06:59:55.679Z,14.60
2017-10-14T07:02:23.475Z,14.60
2017-10-14T07:04:50.510Z,14.50
2017-10-14T07:07:17.550Z,14.60
2017-10-14T07:09:44.585Z,14.60
2017-10-14T07:12:12.396Z,14.70
2017-10-14T07:14:39.438Z,14.70
2017-10-14T07:17:06.506Z,14.70
2017-10-14T07:19:33.554Z,14.80
2017-10-14T07:22:00.597Z,14.80
2017-10-14T07:24:27.627Z,14.80
2017-10-14T07:26:54.669Z,14.90
2017-10-14T07:29:21.714Z,14.90
2017-10-14T07:31:48.898Z,14.90
2017-10-14T07:34:15.951Z,14.90
2017-10-14T07:36:42.993Z,15.00
2017-10-14T07:39:10.028Z,15.00
2017-10-14T07:41:37.061Z,15.10
2017-10-14T07:44:04.097Z,15.20
2017-10-14T07:46:31.135Z,15.20
2017-10-14T07:48:58.937Z,15.50
2017-10-14T07:51:25.988Z,15.40
2017-10-14T07:53:53.008Z,15.40
2017-10-14T07:56:20.039Z,15.30
2017-10-14T07:58:47.853Z,15.40
2017-10-14T08:01:14.886Z,15.30
2017-10-14T08:03:41.928Z,15.40
2017-10-14T08:06:08.978Z,15.40
2017-10-14T08:08:36.024Z,15.40
2017-10-14T08:11:03.051Z,15.40
2017-10-14T08:13:30.881Z,15.50
2017-10-14T08:15:57.913Z,15.50
2017-10-14T08:18:24.949Z,15.60
2017-10-14T08:20:51.980Z,15.60
2017-10-14T08:23:19.025Z,15.60
2017-10-14T08:25:46.058Z,15.60
2017-10-14T08:28:13.846Z,15.70
2017-10-14T08:30:40.890Z,15.70
2017-10-14T08:33:07.929Z,15.80
2017-10-14T08:35:34.965Z,15.90
2017-10-14T08:38:02.768Z,16.00
2017-10-14T08:40:29.792Z,15.90
2017-10-14T08:42:57.602Z,16.00
2017-10-14T08:45:24.645Z,15.90
2017-10-14T08:47:51.664Z,16.00
2017-10-14T08:50:18.698Z,16.00
2017-10-14T08:52:46.502Z,16.30
2017-10-14T08:55:13.536Z,16.30
2017-10-14T08:57:40.565Z,16.20
2017-10-14T09:00:08.369Z,16.20
2017-10-14T09:02:35.400Z,16.10
2017-10-14T09:05:02.433Z,16.20
2017-10-14T09:07:29.473Z,16.20
2017-10-14T09:09:56.552Z,16.20
2017-10-14T09:12:23.586Z,16.20
2017-10-14T09:14:50.620Z,16.30
2017-10-14T09:17:18.423Z,16.40
2017-10-14T09:19:45.453Z,16.30
2017-10-14T09:22:12.484Z,16.40
2017-10-14T09:24:40.289Z,16.40
2017-10-14T09:27:07.321Z,16.40
2017-10-14T09:29:34.352Z,16.40
2017-10-14T09:32:01.405Z,16.50
2017-10-14T09:34:28.434Z,16.60
2017-10-14T09:36:56.233Z,16.60
2017-10-14T09:39:23.276Z,16.50
2017-10-14T09:41:50.300Z,16.50
2017-10-14T09:44:18.114Z,16.70
2017-10-14T09:46:45.153Z,16.70
2017-10-14T09:49:12.187Z,16.70
2017-10-14T09:51:39.222Z,16.90
2017-10-14T09:54:07.032Z,17.20
2017-10-14T09:56:34.066Z,17.10
2017-10-14T09:59:01.102Z,17.10
2017-10-14T10:01:28.142Z,17.10
2017-10-14T10:03:55.198Z,17.20
2017-10-14T10:06:22.237Z,17.10
2017-10-14T10:08:49.276Z,17.20
2017-10-14T10:11:17.074Z,17.30
2017-10-14T10:13:44.117Z,17.30
2017-10-14T10:16:11.156Z,17.40
2017-10-14T10:18:38.192Z,17.50
2017-10-14T10:21:05.235Z,17.40
2017-10-14T10:23:33.078Z,17.50
2017-10-14T10:26:00.104Z,17.40
2017-10-14T10:28:27.137Z,17.50
2017-10-14T10:30:54.188Z,17.60
2017-10-14T10:33:21.223Z,17.80
2017-10-14T10:35:48.256Z,17.80
2017-10-14T10:38:15.290Z,17.60
2017-10-14T10:40:43.089Z,17.70
2017-10-14T10:43:10.209Z,17.60
2017-10-14T10:45:38.009Z,18.10
2017-10-14T10:48:05.039Z,18.10
2017-10-14T10:50:32.842Z,18.00
2017-10-14T10:52:59.872Z,18.00
2017-10-14T10:55:26.900Z,18.00
2017-10-14T10:57:53.936Z,18.10
2017-10-14T11:00:21.740Z,18.00
2017-10-14T11:02:48.767Z,17.90
2017-10-14T11:05:15.792Z,17.90
2017-10-14T11:07:43.593Z,18.00
2017-10-14T11:10:10.629Z,17.90
2017-10-14T11:12:37.661Z,17.90
2017-10-14T11:15:05.458Z,18.10
2017-10-14T11:17:32.511Z,18.10
2017-10-14T11:19:59.541Z,18.20
2017-10-14T11:22:26.692Z,18.20
2017-10-14T11:24:53.731Z,18.20
2017-10-14T11:27:20.759Z,18.30
2017-10-14T11:29:48.561Z,18.60
2017-10-14T11:32:15.587Z,18.60
2017-10-14T11:34:43.379Z,18.70
2017-10-14T11:37:10.423Z,18.70
2017-10-14T11:39:37.461Z,18.90
2017-10-14T11:42:04.498Z,18.90
2017-10-14T11:44:32.767Z,19.00
2017-10-14T11:47:01.017Z,19.10
2017-10-14T11:49:28.520Z,19.10
2017-10-14T11:51:56.026Z,19.50
2017-10-14T11:54:23.526Z,19.70
2017-10-14T11:56:51.788Z,19.40
2017-10-14T11:59:20.051Z,19.40
2017-10-14T12:01:47.626Z,19.40
2017-10-14T12:04:15.888Z,19.60
2017-10-14T12:06:43.379Z,19.60
2017-10-14T12:09:11.641Z,19.80
2017-10-14T12:11:39.909Z,19.70
2017-10-14T12:14:08.168Z,19.60
2017-10-14T12:16:35.654Z,19.60
2017-10-14T12:19:03.914Z,19.50
2017-10-14T12:21:31.397Z,19.50
2017-10-14T12:23:59.650Z,19.50
2017-10-14T12:26:27.139Z,19.50
2017-10-14T12:28:55.402Z,19.70
2017-10-14T12:31:23.676Z,19.60
2017-10-14T12:33:51.924Z,19.60
2017-10-14T12:36:19.416Z,19.50
2017-10-14T12:38:47.676Z,19.50
2017-10-14T12:41:15.168Z,19.40
2017-10-14T12:43:43.439Z,19.40
2017-10-14T12:46:11.694Z,19.30
2017-10-14T12:48:39.187Z,19.30
2017-10-14T12:51:06.687Z,19.30
2017-10-14T12:53:34.178Z,19.30
2017-10-14T12:56:02.437Z,19.30
2017-10-14T12:58:29.925Z,19.20
2017-10-14T13:00:58.194Z,19.30
2017-10-14T13:03:26.455Z,19.30
2017-10-14T13:05:53.951Z,19.30
2017-10-14T13:08:22.219Z,19.30
2017-10-14T13:10:50.473Z,19.30
2017-10-14T13:13:17.962Z,19.30
2017-10-14T13:15:46.217Z,19.40
2017-10-14T13:18:15.209Z,19.40
2017-10-14T13:20:42.695Z,19.40
2017-10-14T13:23:10.954Z,19.30
2017-10-14T13:25:39.207Z,19.30
2017-10-14T13:28:06.694Z,19.30
2017-10-14T13:30:34.956Z,19.30
2017-10-14T13:33:03.200Z,19.30
2017-10-14T13:35:30.703Z,19.30
2017-10-14T13:37:58.965Z,19.40
2017-10-14T13:40:26.468Z,19.30
2017-10-14T13:42:53.962Z,19.40
2017-10-14T13:45:21.459Z,19.30
2017-10-14T13:47:49.720Z,19.30
2017-10-14T13:50:17.991Z,19.30
2017-10-14T13:52:45.488Z,19.30
2017-10-14T13:55:13.742Z,19.30
2017-10-14T13:57:41.998Z,19.40
2017-10-14T14:00:09.686Z,19.40
2017-10-14T14:02:37.943Z,19.40
2017-10-14T14:05:05.429Z,19.40
2017-10-14T14:07:33.673Z,19.30
2017-10-14T14:10:01.158Z,19.30
2017-10-14T14:12:29.414Z,19.40
2017-10-14T14:14:56.893Z,19.40
2017-10-14T14:17:25.146Z,19.50
2017-10-14T14:19:52.630Z,19.40
2017-10-14T14:22:20.877Z,19.50
2017-10-14T14:24:48.376Z,19.50
2017-10-14T14:27:16.635Z,19.50
2017-10-14T14:29:44.895Z,19.40
2017-10-14T14:32:12.379Z,19.40
2017-10-14T14:34:40.639Z,19.50
2017-10-14T14:37:08.893Z,19.50
2017-10-14T14:39:36.380Z,19.50
2017-10-14T14:42:03.866Z,19.50
2017-10-14T14:44:32.127Z,19.40
2017-10-14T14:47:00.378Z,19.40
2017-10-14T14:49:27.866Z,19.40
2017-10-14T14:51:56.125Z,19.50
2017-10-14T14:54:25.123Z,19.50
2017-10-14T14:56:53.384Z,19.50
2017-10-14T14:59:20.882Z,19.50
2017-10-14T15:01:49.132Z,19.50
2017-10-14T15:04:16.617Z,19.50
2017-10-14T15:06:44.873Z,19.50
2017-10-14T15:09:12.367Z,19.50
2017-10-14T15:11:39.874Z,19.50
2017-10-14T15:14:07.363Z,19.50
2017-10-14T15:16:55.034Z,19.60
2017-10-14T15:19:22.526Z,19.70
2017-10-14T15:21:50.010Z,19.80
2017-10-14T15:24:17.498Z,19.60
2017-10-14T15:26:45.002Z,19.60
2017-10-14T15:29:17.241Z,19.70
2017-10-14T15:31:45.906Z,19.70
2017-10-14T15:34:14.366Z,19.70
2017-10-14T15:36:41.865Z,19.60
2017-10-14T15:39:09.368Z,19.70
2017-10-14T15:41:39.608Z,19.70
2017-10-14T15:44:09.253Z,19.60
2017-10-14T15:46:38.411Z,19.70
2017-10-14T15:49:08.144Z,19.70
2017-10-14T15:51:35.750Z,19.60
2017-10-14T15:54:05.900Z,19.70
2017-10-14T15:56:35.639Z,19.70
2017-10-14T15:59:04.247Z,19.60
2017-10-14T16:01:34.311Z,19.60
2017-10-14T16:04:02.137Z,19.60
2017-10-14T16:06:29.644Z,19.60
2017-10-14T16:08:57.136Z,19.60
2017-10-14T16:11:24.632Z,19.50
2017-10-14T16:13:52.332Z,19.50
2017-10-14T16:16:20.622Z,19.50
2017-10-14T16:18:52.468Z,19.50
2017-10-14T16:21:21.617Z,19.50
2017-10-14T16:23:49.113Z,19.50
2017-10-14T16:26:16.776Z,19.50
2017-10-14T16:28:44.347Z,19.40
2017-10-14T16:31:13.202Z,19.40
2017-10-14T16:33:41.573Z,19.30
2017-10-14T16:36:10.612Z,19.40
2017-10-14T16:38:38.254Z,19.30
2017-10-14T16:41:06.301Z,19.30
2017-10-14T16:43:35.269Z,19.30
2017-10-14T16:46:04.022Z,19.30
2017-10-14T16:48:31.549Z,19.30
2017-10-14T16:50:59.343Z,19.30
2017-10-14T16:53:27.075Z,19.20
2017-10-14T16:55:54.956Z,19.20
2017-10-14T16:58:22.927Z,19.20
2017-10-14T17:00:50.532Z,19.20
2017-10-14T17:03:19.169Z,19.10
2017-10-14T17:05:46.796Z,19.10
2017-10-14T17:08:15.790Z,19.10
2017-10-14T17:10:43.785Z,19.10
2017-10-14T17:13:12.730Z,19.10
2017-10-14T17:15:40.686Z,19.00
2017-10-14T17:18:08.762Z,19.00
2017-10-14T17:20:37.544Z,18.90
2017-10-14T17:23:05.684Z,18.90
2017-10-14T17:25:34.502Z,18.90
2017-10-14T17:28:02.694Z,18.80
2017-10-14T17:30:31.031Z,18.80
2017-10-14T17:33:01.923Z,18.80
2017-10-14T17:35:29.626Z,18.70
2017-10-14T17:37:57.130Z,18.70
2017-10-14T17:40:25.109Z,18.70
2017-10-14T17:43:06.820Z,18.70
2017-10-14T17:45:35.086Z,18.60
2017-10-14T17:48:03.394Z,18.60
2017-10-14T17:50:30.890Z,18.50
2017-10-14T17:52:58.388Z,18.60
2017-10-14T17:55:26.640Z,18.50
2017-10-14T17:57:54.144Z,18.40
2017-10-14T18:00:21.629Z,18.50
2017-10-14T18:02:49.125Z,18.40
2017-10-14T18:05:17.382Z,18.30
2017-10-14T18:07:44.883Z,18.30
2017-10-14T18:10:13.143Z,18.30
2017-10-14T18:12:41.406Z,18.20
2017-10-14T18:15:08.894Z,18.20
2017-10-14T18:17:37.146Z,18.20
2017-10-14T18:20:04.656Z,18.20
2017-10-14T18:22:32.165Z,18.20
2017-10-14T18:24:59.659Z,18.20
2017-10-14T18:27:27.915Z,18.10
2017-10-14T18:29:55.422Z,18.10
2017-10-14T18:32:22.911Z,18.10
2017-10-14T18:34:50.410Z,18.10
2017-10-14T18:37:18.680Z,18.10
2017-10-14T18:39:46.941Z,18.00
2017-10-14T18:42:14.446Z,18.00
2017-10-14T18:44:41.925Z,18.00
2017-10-14T18:47:09.415Z,17.90
2017-10-14T18:49:36.893Z,17.90
2017-10-14T18:52:05.176Z,17.90
2017-10-14T18:54:33.457Z,17.90
2017-10-14T18:57:01.719Z,17.80
2017-10-14T18:59:29.238Z,17.80
2017-10-14T19:01:56.744Z,17.80
2017-10-14T19:04:25.006Z,17.80
2017-10-14T19:06:52.490Z,17.70
2017-10-14T19:09:20.758Z,17.80
2017-10-14T19:11:49.011Z,17.70
2017-10-14T19:14:16.502Z,17.70
2017-10-14T19:16:44.767Z,17.70
2017-10-14T19:19:12.266Z,17.60
2017-10-14T19:21:39.828Z,17.70
2017-10-14T19:24:07.320Z,17.70
2017-10-14T19:26:34.804Z,17.70
2017-10-14T19:29:02.314Z,17.60
2017-10-14T19:31:30.561Z,17.60
2017-10-14T19:33:59.086Z,17.60
2017-10-14T19:36:28.793Z,17.50
2017-10-14T19:38:56.508Z,17.50
2017-10-14T19:41:24.776Z,17.50
2017-10-14T19:43:55.496Z,17.40
2017-10-14T19:46:24.959Z,17.50
2017-10-14T19:48:53.092Z,17.40
2017-10-14T19:51:21.358Z,17.40
2017-10-14T19:53:50.375Z,17.40
2017-10-14T19:56:19.375Z,17.40
2017-10-14T19:58:48.708Z,17.40
2017-10-14T20:01:16.445Z,17.40
2017-10-14T20:03:45.208Z,17.40
2017-10-14T20:06:13.479Z,17.40
2017-10-14T20:08:42.982Z,17.30
2017-10-14T20:11:12.146Z,17.30
2017-10-14T20:13:40.254Z,17.30
2017-10-14T20:16:10.539Z,17.40
2017-10-14T20:18:38.096Z,17.30
2017-10-14T20:21:05.593Z,17.30
2017-10-14T20:23:34.157Z,17.30
2017-10-14T20:26:01.681Z,17.20
2017-10-14T20:28:30.105Z,17.30
2017-10-14T20:30:59.846Z,17.20
2017-10-14T20:33:28.132Z,17.20
2017-10-14T20:35:56.697Z,17.10
2017-10-14T20:38:27.915Z,17.00
2017-10-14T20:40:56.555Z,17.00
2017-10-14T20:43:24.854Z,17.00
2017-10-14T20:45:52.397Z,17.00
2017-10-14T20:48:20.658Z,17.10
2017-10-14T20:50:48.156Z,17.00
2017-10-14T20:53:15.716Z,17.10
2017-10-14T20:55:43.215Z,17.00
2017-10-14T20:58:10.709Z,17.00
2017-10-14T21:00:39.008Z,17.00
2017-10-14T21:03:06.513Z,17.00
2017-10-14T21:05:34.023Z,17.00
2017-10-14T21:08:01.522Z,17.00
2017-10-14T21:10:29.015Z,17.00
2017-10-14T21:12:57.297Z,17.00
2017-10-14T21:15:25.573Z,16.90
2017-10-14T21:17:54.297Z,16.90
2017-10-14T21:20:21.839Z,16.80
2017-10-14T21:22:49.529Z,16.90
2017-10-14T21:25:17.493Z,16.80
2017-10-14T21:27:45.056Z,16.80
2017-10-14T21:30:12.550Z,16.80
2017-10-14T21:32:40.059Z,16.90
2017-10-14T21:35:07.562Z,16.80
2017-10-14T21:37:35.080Z,16.90
2017-10-14T21:40:02.613Z,16.80
2017-10-14T21:42:30.870Z,16.80
2017-10-14T21:44:58.352Z,16.70
2017-10-14T21:47:26.830Z,16.70
2017-10-14T21:49:54.341Z,16.70
2017-10-14T21:52:21.872Z,16.70
2017-10-14T21:54:49.399Z,16.70
2017-10-14T21:57:16.891Z,16.80
2017-10-14T21:59:44.406Z,16.70
2017-10-14T22:02:11.903Z,16.70
2017-10-14T22:04:40.158Z,16.80
2017-10-14T22:07:07.676Z,16.70
2017-10-14T22:09:35.161Z,16.70
2017-10-14T22:12:02.637Z,16.70
2017-10-14T22:14:30.943Z,16.70
2017-10-14T22:16:58.500Z,16.60
2017-10-14T22:19:26.006Z,16.60
2017-10-14T22:21:53.507Z,16.40
2017-10-14T22:24:21.779Z,16.50
2017-10-14T22:26:50.028Z,16.60
2017-10-14T22:29:17.510Z,16.50
2017-10-14T22:31:45.786Z,16.50
2017-10-14T22:34:14.075Z,16.50
2017-10-14T22:36:41.616Z,16.50
2017-10-14T22:39:09.112Z,16.50
2017-10-14T22:41:36.602Z,16.50
2017-10-14T22:44:04.091Z,16.40
2017-10-14T22:46:31.582Z,16.50
2017-10-14T22:48:59.161Z,16.50
2017-10-14T22:51:26.650Z,16.40
2017-10-14T22:53:54.148Z,16.40
2017-10-14T22:56:22.401Z,16.40
2017-10-14T22:58:50.659Z,16.30
2017-10-14T23:01:18.165Z,16.20
2017-10-14T23:03:46.429Z,16.20
2017-10-14T23:06:14.731Z,16.20
2017-10-14T23:08:42.267Z,16.20
2017-10-14T23:11:10.546Z,16.20
2017-10-14T23:13:38.816Z,16.30
2017-10-14T23:16:07.074Z,16.30
2017-10-14T23:18:34.559Z,16.20
2017-10-14T23:21:02.809Z,16.20
2017-10-14T23:23:30.300Z,16.20
2017-10-14T23:25:58.554Z,16.10
2017-10-14T23:28:26.038Z,16.10
2017-10-14T23:30:54.300Z,16.10
2017-10-14T23:33:21.929Z,16.00
2017-10-14T23:35:49.420Z,16.10
2017-10-14T23:38:18.412Z,16.10
2017-10-14T23:40:45.925Z,16.10
2017-10-14T23:43:13.419Z,16.10
2017-10-14T23:45:40.933Z,16.00
2017-10-14T23:48:08.417Z,16.00
2017-10-14T23:50:35.903Z,16.10
2017-10-14T23:53:03.470Z,16.10
2017-10-14T23:55:31.741Z,16.10
2017-10-14T23:57:59.299Z,16.00
